KGAF

Details ICAO KGAF
Name HUTSON FLD
Region United States
Timezone America/Chicago (UTC-5.0)
Plans Departing 0
Arriving 0
Stats Elevation 824 ft / 251 m (AMSL)
Location 48.405625° -97.370139°
Runways 2
Magnetic Variation 3.260° E
Sunrise 2018-05-22 10:42:27 UTC / 2018-05-22 05:42:27 Local
Sunset 2018-05-23 02:12:44 UTC / 2018-05-22 21:12:44 Local
Advertisement - Login to hide

Runways

ID Width Length Bearing (true) Bearing (mag) Surface Threshold Offset Overrun Length
08 150 ft / 46 m 4,307 ft / 1,313 m 89.99° 86.73° Grass 0 ft / 0 m 0 ft / 0 m
17 75 ft / 23 m 3,953 ft / 1,205 m 180.00° 176.74° Asphalt 0 ft / 0 m 0 ft / 0 m
26 150 ft / 46 m 4,307 ft / 1,313 m 270.01° 266.75° Grass 0 ft / 0 m 0 ft / 0 m
35 75 ft / 23 m 3,953 ft / 1,205 m 0.00° 356.74° Asphalt 0 ft / 0 m 0 ft / 0 m

Map

Weather


0- 5 10 15 20 25 30 35+ Temperature / ° C

Clouds and Precipitation
Forecast for 2018-05-22 18:00 UTC. Updated an hour ago

Ground ~20,000 ft ~40,000 ft Winds

METAR

KGAF 221815Z AUTO 20007G15KT 10SM FEW044 SCT050 25/15 A2998 RMK AO2 PWINO

TAF

Not found

Frequencies

Unicom 122.80 MHz UNICOM
Approach 132.30 MHz GRAND FORKS APP/DEP
Warning: Do not use this data for real-world aviation or navigation. No guarantee of current accuracy is given.